Time;durP1;ratioP1;P1;durP2;ratioP2;P2;SDS_P1;SDS_P2;PMS_P1;PMS_P2;Temp;Humidity;BMP_temperature;BMP_pressure;BME280_temperature;BME280_humidity;BME280_pressure;Samples;Min_cycle;Max_cycle;Signal;HPM_P1;HPM_P2
2020/12/22 00:01:16;;;;;;;0.70;0.70;;;11.90;99.90;;;;;;5035705;28;20025;-87
2020/12/22 00:03:43;;;;;;;0.45;0.38;;;11.90;99.90;;;;;;5043530;28;20386;-87
2020/12/22 00:06:09;;;;;;;;;;;11.90;99.90;;;;;;5032873;28;20108;-87
2020/12/22 00:08:35;;;;;;;0.45;0.45;;;11.90;99.90;;;;;;5038958;28;19916;-85
2020/12/22 00:11:01;;;;;;;0.60;0.60;;;11.90;99.90;;;;;;5039627;28;20033;-85
2020/12/22 00:13:27;;;;;;;1.70;0.43;;;11.90;99.90;;;;;;5038419;28;20116;-77
2020/12/22 00:15:52;;;;;;;0.10;0.10;;;11.90;99.90;;;;;;5042727;28;20116;-91
2020/12/22 00:18:18;;;;;;;0.10;0.10;;;11.90;99.90;;;;;;5043679;28;20029;-91
2020/12/22 00:20:44;;;;;;;1.50;1.03;;;11.90;99.90;;;;;;5035793;28;20052;-79
2020/12/22 00:23:10;;;;;;;0.30;0.30;;;11.90;99.90;;;;;;5042344;28;20112;-82
2020/12/22 00:25:43;;;;;;;0.07;0.07;;;12.00;99.90;;;;;;5046567;28;20133;-85
2020/12/22 00:28:09;;;;;;;0.20;0.20;;;11.90;99.90;;;;;;5034404;28;20033;-86
2020/12/22 00:30:35;;;;;;;0.40;0.37;;;11.90;99.90;;;;;;5048515;28;20031;-89
2020/12/22 00:33:02;;;;;;;2.07;0.60;;;11.90;99.90;;;;;;5041235;28;20046;-91
2020/12/22 00:35:27;;;;;;;0.30;0.30;;;11.90;99.90;;;;;;5044625;28;20021;-88
2020/12/22 00:37:53;;;;;;;1.17;0.57;;;11.90;99.90;;;;;;5038958;28;20416;-88
2020/12/22 00:40:19;;;;;;;0.47;0.30;;;11.90;99.90;;;;;;5045894;28;20064;-86
2020/12/22 00:42:44;;;;;;;0.77;0.67;;;11.90;99.90;;;;;;5046174;28;20404;-85
2020/12/22 00:45:27;;;;;;;0.57;0.57;;;11.90;99.90;;;;;;5039916;28;20030;-89
2020/12/22 00:47:53;;;;;;;0.80;0.55;;;11.80;99.90;;;;;;5027570;28;20083;-81
2020/12/22 00:50:19;;;;;;;0.00;0.00;;;11.80;99.90;;;;;;5046224;28;20029;-81
2020/12/22 00:52:44;;;;;;;1.07;0.70;;;11.80;99.90;;;;;;5044732;28;20083;-85
2020/12/22 00:55:10;;;;;;;0.30;0.30;;;11.90;99.90;;;;;;5041310;28;20034;-85
2020/12/22 00:57:35;;;;;;;0.67;0.53;;;11.80;99.90;;;;;;5044290;28;20448;-86
2020/12/22 01:00:03;;;;;;;0.30;0.30;;;11.80;99.90;;;;;;5046881;28;20036;-85
2020/12/22 01:02:29;;;;;;;0.20;0.20;;;11.90;99.90;;;;;;5047085;28;20767;-91
2020/12/22 01:04:54;;;;;;;0.00;0.00;;;11.90;99.90;;;;;;5047510;28;20030;-81
2020/12/22 01:07:20;;;;;;;4.40;0.30;;;11.90;99.90;;;;;;5038588;28;20033;-85
2020/12/22 01:09:46;;;;;;;0.63;0.10;;;11.90;99.90;;;;;;5036087;28;20065;-79
2020/12/22 01:12:12;;;;;;;0.13;0.13;;;11.90;99.90;;;;;;5035534;28;20122;-83
2020/12/22 01:14:38;;;;;;;0.00;0.00;;;11.90;99.90;;;;;;5027034;28;20101;-88
2020/12/22 01:17:04;;;;;;;0.00;0.00;;;11.90;99.90;;;;;;5038268;28;20056;-82
2020/12/22 01:19:30;;;;;;;0.25;0.20;;;11.90;99.90;;;;;;5036114;28;20033;-86
2020/12/22 01:21:56;;;;;;;0.00;0.00;;;11.90;99.90;;;;;;5036816;28;20037;-88
2020/12/22 01:24:22;;;;;;;0.00;0.00;;;11.90;99.90;;;;;;5037311;28;20104;-85
2020/12/22 01:26:53;;;;;;;0.20;0.20;;;11.90;99.90;;;;;;5037032;28;20052;-84
2020/12/22 01:29:19;;;;;;;0.00;0.00;;;11.90;99.90;;;;;;5033963;28;20065;-83
2020/12/22 01:31:46;;;;;;;0.05;0.05;;;12.00;99.90;;;;;;5032613;28;20029;-84
2020/12/22 01:34:12;;;;;;;0.20;0.20;;;12.00;99.90;;;;;;5029138;28;20103;-87
2020/12/22 01:36:38;;;;;;;0.10;0.10;;;12.00;99.90;;;;;;5030641;28;20479;-82
2020/12/22 01:39:04;;;;;;;0.17;0.10;;;12.00;99.90;;;;;;5033502;28;20033;-90
2020/12/22 01:41:34;;;;;;;0.43;0.20;;;12.00;99.90;;;;;;5035443;28;20423;-83
2020/12/22 01:44:07;;;;;;;0.55;0.55;;;12.00;99.90;;;;;;5033575;28;20399;-82
2020/12/22 01:46:41;;;;;;;1.30;0.20;;;12.00;99.90;;;;;;5032558;28;20029;-82
2020/12/22 01:49:18;;;;;;;0.00;0.00;;;12.00;99.90;;;;;;5017772;28;20014;-84
2020/12/22 01:51:45;;;;;;;0.38;0.17;;;12.10;99.90;;;;;;5034622;28;20025;-83
2020/12/22 01:54:13;;;;;;;0.00;0.00;;;12.10;99.90;;;;;;5036089;28;20028;-87
2020/12/22 01:56:39;;;;;;;0.13;0.13;;;12.10;99.90;;;;;;5026049;28;20060;-84
2020/12/22 01:59:05;;;;;;;0.38;0.38;;;12.20;99.90;;;;;;5021794;28;20328;-85
2020/12/22 02:01:32;;;;;;;0.47;0.40;;;12.20;99.90;;;;;;5027666;28;20033;-83
2020/12/22 02:03:58;;;;;;;;;;;12.20;99.90;;;;;;5031421;28;20036;-84
2020/12/22 02:06:25;;;;;;;;;;;12.20;99.90;;;;;;5036315;28;20243;-87
2020/12/22 02:08:51;;;;;;;0.50;0.50;;;12.20;99.90;;;;;;5025688;28;19924;-85
2020/12/22 02:11:30;;;;;;;0.53;0.53;;;12.30;99.90;;;;;;5036635;28;20014;-89
2020/12/22 02:13:57;;;;;;;0.03;0.03;;;12.20;99.90;;;;;;5037058;28;20017;-86
2020/12/22 02:16:24;;;;;;;0.32;0.32;;;12.20;99.90;;;;;;5034578;28;20125;-84
2020/12/22 02:18:51;;;;;;;0.43;0.30;;;12.20;99.90;;;;;;5033003;28;20034;-85
2020/12/22 02:21:17;;;;;;;0.00;0.00;;;12.20;99.90;;;;;;5057967;28;20036;-82
2020/12/22 02:23:44;;;;;;;1.58;0.82;;;12.20;99.90;;;;;;5035352;28;20589;-83
2020/12/22 02:26:10;;;;;;;0.00;0.00;;;12.20;99.90;;;;;;5035460;28;20482;-83
2020/12/22 02:28:36;;;;;;;0.10;0.10;;;12.10;99.90;;;;;;5035812;28;20034;-82
2020/12/22 02:31:02;;;;;;;0.00;0.00;;;12.20;99.90;;;;;;5035650;28;20033;-83
2020/12/22 02:33:29;;;;;;;0.10;0.10;;;12.10;99.90;;;;;;5036344;28;20148;-85
2020/12/22 02:35:55;;;;;;;0.10;0.10;;;12.10;99.90;;;;;;5032936;28;20416;-83
2020/12/22 02:38:22;;;;;;;0.47;0.30;;;12.10;99.90;;;;;;5034919;28;20032;-81
2020/12/22 02:40:48;;;;;;;1.00;0.52;;;12.10;99.90;;;;;;5035838;28;20034;-81
2020/12/22 02:43:14;;;;;;;6.07;1.07;;;12.10;99.90;;;;;;5028946;28;20037;-83
2020/12/22 02:45:41;;;;;;;0.90;0.70;;;12.10;99.90;;;;;;5035163;28;20439;-80
2020/12/22 02:48:11;;;;;;;4.47;1.13;;;12.10;99.90;;;;;;5034013;28;20033;-80
2020/12/22 02:50:37;;;;;;;0.08;0.08;;;12.10;99.90;;;;;;5033871;28;20048;-86
2020/12/22 02:53:04;;;;;;;0.15;0.05;;;12.10;99.90;;;;;;5033574;28;20018;-81
2020/12/22 02:55:31;;;;;;;;;;;12.10;99.90;;;;;;5035692;28;20029;-85
2020/12/22 02:57:56;;;;;;;0.10;0.10;;;12.00;99.90;;;;;;5033555;28;19909;-90
2020/12/22 03:00:23;;;;;;;6.03;0.57;;;12.00;99.90;;;;;;5032841;28;20079;-85
2020/12/22 03:02:49;;;;;;;0.68;0.68;;;12.00;99.90;;;;;;5035579;28;20072;-79
2020/12/22 03:05:15;;;;;;;6.43;0.83;;;12.00;99.90;;;;;;5033911;28;20037;-86
2020/12/22 03:07:41;;;;;;;1.03;0.40;;;12.00;99.90;;;;;;5027061;28;20302;-87
2020/12/22 03:10:09;;;;;;;0.10;0.10;;;12.00;99.90;;;;;;5024291;28;20026;-91
2020/12/22 03:12:35;;;;;;;0.40;0.40;;;12.00;99.90;;;;;;5028925;28;20369;-85
2020/12/22 03:15:01;;;;;;;9.82;0.32;;;12.00;99.90;;;;;;5051218;28;20032;-87
2020/12/22 03:17:27;;;;;;;1.90;0.50;;;12.00;99.90;;;;;;5045795;28;20055;-84
2020/12/22 03:19:53;;;;;;;0.00;0.00;;;12.00;99.90;;;;;;5045581;28;20025;-83
2020/12/22 03:22:18;;;;;;;1.43;1.00;;;12.00;99.90;;;;;;5047656;28;20037;-85
2020/12/22 03:24:44;;;;;;;1.50;0.63;;;12.00;99.90;;;;;;5046915;28;20029;-85
2020/12/22 03:27:10;;;;;;;0.40;0.40;;;12.00;99.90;;;;;;5040630;28;21653;-85
2020/12/22 03:29:35;;;;;;;10.47;1.03;;;12.00;99.90;;;;;;5043204;28;20151;-87
2020/12/22 03:32:01;;;;;;;6.43;0.57;;;12.00;99.90;;;;;;5043505;28;20051;-87
2020/12/22 03:34:27;;;;;;;0.50;0.50;;;12.00;99.90;;;;;;5044588;28;20032;-84
2020/12/22 03:36:52;;;;;;;0.73;0.73;;;12.00;99.90;;;;;;5044678;28;20107;-89
2020/12/22 03:39:19;;;;;;;5.20;0.50;;;12.00;99.90;;;;;;5037979;28;20048;-89
2020/12/22 03:41:45;;;;;;;0.32;0.32;;;12.00;99.90;;;;;;5043358;28;20048;-82
2020/12/22 03:44:12;;;;;;;0.10;0.10;;;12.00;99.90;;;;;;5041051;28;20034;-84
2020/12/22 03:46:39;;;;;;;4.88;0.70;;;12.00;99.90;;;;;;5044223;28;20155;-90
2020/12/22 03:49:04;;;;;;;4.07;0.50;;;12.00;99.90;;;;;;5034859;28;20029;-88
2020/12/22 03:51:30;;;;;;;1.30;0.60;;;12.00;99.90;;;;;;5040006;28;20032;-87
2020/12/22 03:53:56;;;;;;;8.73;2.90;;;12.00;99.90;;;;;;5039476;28;20435;-87
2020/12/22 03:56:22;;;;;;;0.30;0.30;;;11.90;99.90;;;;;;5044426;28;20072;-89
2020/12/22 03:58:48;;;;;;;5.28;1.25;;;12.00;99.90;;;;;;5038298;28;20029;-81
2020/12/22 04:01:14;;;;;;;0.13;0.10;;;12.00;99.90;;;;;;5039888;28;20328;-81
2020/12/22 04:03:39;;;;;;;4.83;1.03;;;12.00;99.90;;;;;;5039518;28;20301;-79
2020/12/22 04:06:05;;;;;;;0.73;0.73;;;12.00;99.90;;;;;;5040646;28;20478;-86
2020/12/22 04:08:31;;;;;;;0.10;0.10;;;12.00;99.90;;;;;;5042592;28;20070;-85
2020/12/22 04:10:57;;;;;;;2.60;0.63;;;12.00;99.90;;;;;;5033627;28;20033;-87
2020/12/22 04:13:22;;;;;;;3.73;0.47;;;12.00;99.90;;;;;;5030423;28;20570;-79
2020/12/22 04:15:48;;;;;;;0.17;0.13;;;12.10;99.90;;;;;;5039941;28;20041;-83
2020/12/22 04:18:14;;;;;;;0.97;0.50;;;12.10;99.90;;;;;;5035915;28;20027;-90
2020/12/22 04:20:40;;;;;;;1.50;0.63;;;12.10;99.90;;;;;;5041100;28;20083;-89
2020/12/22 04:23:06;;;;;;;1.58;0.32;;;12.10;99.90;;;;;;5033627;28;20061;-79
2020/12/22 04:25:31;;;;;;;0.63;0.55;;;12.10;99.90;;;;;;5044234;28;20389;-82
2020/12/22 04:27:57;;;;;;;0.20;0.20;;;12.20;99.90;;;;;;5040616;28;20026;-80
2020/12/22 04:30:23;;;;;;;6.40;0.80;;;12.10;99.90;;;;;;5040826;23;20049;-88
2020/12/22 04:32:48;;;;;;;0.00;0.00;;;12.20;99.90;;;;;;5016156;28;20021;-80
2020/12/22 04:35:14;;;;;;;4.53;1.53;;;12.20;99.90;;;;;;5040308;28;20014;-89
2020/12/22 04:37:40;;;;;;;0.63;0.63;;;12.20;99.90;;;;;;5048108;23;20043;-88
2020/12/22 04:40:06;;;;;;;0.13;0.10;;;12.20;99.90;;;;;;5030551;28;20072;-84
2020/12/22 04:42:33;;;;;;;1.80;0.83;;;12.20;99.90;;;;;;5029356;28;20068;-81
2020/12/22 04:45:00;;;;;;;0.80;0.55;;;12.20;99.90;;;;;;5029405;28;20072;-89
2020/12/22 04:47:26;;;;;;;2.28;1.45;;;12.10;99.90;;;;;;5029760;28;20026;-90
2020/12/22 04:49:56;;;;;;;0.10;0.10;;;12.10;99.90;;;;;;5025442;28;20693;-84
2020/12/22 04:52:22;;;;;;;3.45;1.25;;;12.20;99.90;;;;;;5026543;28;20412;-78
2020/12/22 04:54:48;;;;;;;0.52;0.52;;;12.20;99.90;;;;;;5029959;28;20414;-81
2020/12/22 04:57:15;;;;;;;2.80;0.47;;;12.20;99.90;;;;;;5031447;28;20324;-81
2020/12/22 04:59:43;;;;;;;6.20;0.88;;;12.20;99.90;;;;;;5031989;28;20102;-88
2020/12/22 05:02:10;;;;;;;0.20;0.20;;;12.20;99.90;;;;;;5028072;28;20030;-82
2020/12/22 05:04:39;;;;;;;0.85;0.63;;;12.20;99.90;;;;;;5033464;28;20056;-81
2020/12/22 05:07:05;;;;;;;0.45;0.20;;;12.20;99.90;;;;;;5033651;28;20120;-83
2020/12/22 05:09:31;;;;;;;3.65;0.57;;;12.20;99.90;;;;;;5032292;28;21112;-83
2020/12/22 05:11:57;;;;;;;0.53;0.13;;;12.20;99.90;;;;;;5034823;28;20113;-86
2020/12/22 05:14:25;;;;;;;0.50;0.50;;;12.20;99.90;;;;;;5034309;28;20497;-80
2020/12/22 05:16:51;;;;;;;0.20;0.17;;;12.20;99.90;;;;;;5032358;28;20029;-86
2020/12/22 05:19:20;;;;;;;4.33;1.33;;;12.20;99.90;;;;;;5033288;28;20029;-78
2020/12/22 05:21:47;;;;;;;13.90;1.45;;;12.20;99.90;;;;;;5047970;28;20037;-81
2020/12/22 05:24:14;;;;;;;0.13;0.10;;;12.20;99.90;;;;;;5026972;28;20116;-81
2020/12/22 05:26:41;;;;;;;1.70;1.25;;;12.20;99.90;;;;;;5034006;28;20044;-79
2020/12/22 05:29:12;;;;;;;0.47;0.47;;;12.30;99.90;;;;;;5031283;28;20343;-80
2020/12/22 05:31:51;;;;;;;0.22;0.22;;;12.30;99.90;;;;;;5024215;28;20041;-79
2020/12/22 05:34:18;;;;;;;0.57;0.55;;;12.30;99.90;;;;;;5030676;28;20071;-81
2020/12/22 05:36:45;;;;;;;1.25;1.15;;;12.30;99.90;;;;;;5032334;28;20022;-90
2020/12/22 05:39:17;;;;;;;0.30;0.30;;;12.30;99.90;;;;;;5032560;28;20053;-79
2020/12/22 05:41:43;;;;;;;1.08;0.77;;;12.20;99.90;;;;;;5024650;28;20057;-79
2020/12/22 05:44:08;;;;;;;0.73;0.73;;;12.30;99.90;;;;;;5037563;28;20061;-84
2020/12/22 05:46:39;;;;;;;0.17;0.17;;;12.20;99.90;;;;;;5035026;28;20021;-85
2020/12/22 05:49:07;;;;;;;3.40;1.55;;;12.20;99.90;;;;;;5034029;28;20112;-84
2020/12/22 05:51:33;;;;;;;0.75;0.75;;;12.20;99.90;;;;;;5033042;28;20095;-84
2020/12/22 05:54:12;;;;;;;3.30;1.00;;;12.20;99.90;;;;;;5033158;28;20400;-82
2020/12/22 05:56:38;;;;;;;0.05;0.05;;;12.10;99.90;;;;;;5035144;28;20024;-91
2020/12/22 05:59:17;;;;;;;0.40;0.30;;;12.10;99.90;;;;;;5033268;28;20030;-83
2020/12/22 06:01:42;;;;;;;0.32;0.32;;;12.10;99.90;;;;;;5030245;28;20044;-88
2020/12/22 06:04:09;;;;;;;1.63;0.23;;;12.10;99.90;;;;;;5032042;28;20395;-81
2020/12/22 06:06:36;;;;;;;0.22;0.22;;;12.00;99.90;;;;;;5035926;28;20033;-89
2020/12/22 06:09:02;;;;;;;0.85;0.05;;;12.00;99.90;;;;;;5032158;28;20170;-80
2020/12/22 06:11:32;;;;;;;0.00;0.00;;;12.00;99.90;;;;;;5034489;28;20029;-89
2020/12/22 06:13:58;;;;;;;1.75;0.30;;;12.00;99.90;;;;;;5029282;28;20030;-88
2020/12/22 06:16:24;;;;;;;0.30;0.30;;;12.00;99.90;;;;;;5033920;28;20031;-76
2020/12/22 06:18:52;;;;;;;0.23;0.23;;;11.90;99.90;;;;;;5031171;28;20112;-87
2020/12/22 06:21:19;;;;;;;0.28;0.28;;;12.00;99.90;;;;;;5031932;28;20024;-83
2020/12/22 06:23:49;;;;;;;0.43;0.40;;;12.00;99.90;;;;;;5030208;28;20025;-82
2020/12/22 06:26:18;;;;;;;0.70;0.70;;;12.00;99.90;;;;;;5033742;28;20048;-81
2020/12/22 06:28:44;;;;;;;3.10;0.95;;;12.00;99.90;;;;;;5035304;28;20151;-87
2020/12/22 06:31:24;;;;;;;0.90;0.52;;;12.00;99.90;;;;;;5026426;28;20021;-86
2020/12/22 06:33:51;;;;;;;7.03;0.85;;;12.00;99.90;;;;;;5027047;28;20034;-87
2020/12/22 06:36:18;;;;;;;1.15;0.17;;;12.00;99.90;;;;;;5032606;28;20022;-80
2020/12/22 06:38:49;;;;;;;1.52;1.02;;;12.00;99.90;;;;;;5032012;28;20045;-83
2020/12/22 06:41:33;;;;;;;1.38;0.30;;;12.10;99.90;;;;;;5024762;28;20020;-80
2020/12/22 06:44:18;;;;;;;0.77;0.77;;;12.10;99.90;;;;;;5030519;28;20022;-79
2020/12/22 06:46:51;;;;;;;0.00;0.00;;;12.10;99.90;;;;;;5030378;28;20294;-82
2020/12/22 06:49:17;;;;;;;0.75;0.75;;;12.20;99.90;;;;;;5038158;28;20053;-79
2020/12/22 06:51:43;;;;;;;0.73;0.55;;;12.20;99.90;;;;;;5033717;28;20028;-84
2020/12/22 06:54:14;;;;;;;1.30;0.23;;;12.20;99.90;;;;;;5032052;28;20026;-82
2020/12/22 06:56:41;;;;;;;0.00;0.00;;;12.20;99.90;;;;;;5034145;28;20076;-83
2020/12/22 06:59:11;;;;;;;0.30;0.30;;;12.20;99.90;;;;;;5028500;28;20097;-86
2020/12/22 07:01:45;;;;;;;0.38;0.38;;;12.20;99.90;;;;;;5034769;28;20108;-81
2020/12/22 07:04:15;;;;;;;4.43;1.13;;;12.10;99.90;;;;;;5032365;28;20025;-82
2020/12/22 07:06:47;;;;;;;2.60;0.70;;;12.20;99.90;;;;;;5035224;28;20078;-81
2020/12/22 07:09:23;;;;;;;0.65;0.30;;;12.10;99.90;;;;;;5031770;28;20039;-82
2020/12/22 07:11:51;;;;;;;0.15;0.15;;;12.00;99.90;;;;;;5033069;28;20080;-82
2020/12/22 07:14:19;;;;;;;0.45;0.45;;;11.90;99.90;;;;;;5035469;28;20026;-88
2020/12/22 07:16:55;;;;;;;0.13;0.10;;;11.80;99.90;;;;;;5025767;28;20022;-89
2020/12/22 07:19:28;;;;;;;2.05;0.63;;;11.80;99.90;;;;;;5034832;28;20025;-85
2020/12/22 07:21:55;;;;;;;0.60;0.60;;;11.80;99.90;;;;;;5034847;28;20556;-81
2020/12/22 07:24:21;;;;;;;0.25;0.17;;;11.80;99.90;;;;;;5035367;28;20075;-87
2020/12/22 07:26:46;;;;;;;3.30;0.47;;;11.70;99.90;;;;;;5026019;28;20057;-80
2020/12/22 07:29:13;;;;;;;0.93;0.47;;;11.70;99.90;;;;;;5032147;28;20313;-87
2020/12/22 07:31:40;;;;;;;0.35;0.30;;;11.70;99.90;;;;;;5032639;28;20026;-89
2020/12/22 07:34:07;;;;;;;5.47;0.90;;;11.70;99.90;;;;;;5030164;28;20493;-81
2020/12/22 07:36:33;;;;;;;14.88;1.83;;;11.60;99.90;;;;;;5030414;28;20316;-87
2020/12/22 07:39:23;;;;;;;0.25;0.25;;;11.60;99.90;;;;;;5033568;28;20155;-88
2020/12/22 07:41:52;;;;;;;0.75;0.32;;;11.60;99.90;;;;;;5031999;28;20423;-84
2020/12/22 07:44:20;;;;;;;12.90;1.23;;;11.60;99.90;;;;;;5035343;28;20029;-85
2020/12/22 07:46:47;;;;;;;1.45;0.63;;;11.60;99.90;;;;;;5033299;28;20029;-82
2020/12/22 07:49:14;;;;;;;0.57;0.57;;;11.70;99.90;;;;;;5033984;28;20037;-88
2020/12/22 07:51:42;;;;;;;1.13;0.75;;;11.70;99.90;;;;;;5035644;28;20096;-85
2020/12/22 07:54:08;;;;;;;1.08;0.63;;;11.70;99.90;;;;;;5035314;28;20312;-85
2020/12/22 07:56:36;;;;;;;0.77;0.35;;;11.70;99.90;;;;;;5035145;28;20032;-90
2020/12/22 07:59:07;;;;;;;0.60;0.45;;;11.70;99.90;;;;;;5032513;28;20032;-86
2020/12/22 08:01:38;;;;;;;0.20;0.10;;;11.70;99.90;;;;;;5033901;28;20082;-93
2020/12/22 08:04:24;;;;;;;2.70;1.50;;;11.70;99.90;;;;;;5033673;28;20037;-93
2020/12/22 08:06:56;;;;;;;2.97;1.48;;;11.70;99.90;;;;;;5034660;28;20428;-81
2020/12/22 08:09:32;;;;;;;6.13;0.47;;;11.70;99.90;;;;;;5025329;28;20045;-82
2020/12/22 08:12:02;;;;;;;4.78;1.00;;;11.70;99.90;;;;;;5029369;28;20021;-82
2020/12/22 08:14:30;;;;;;;0.20;0.20;;;11.70;99.90;;;;;;5033334;28;20026;-85
2020/12/22 08:17:01;;;;;;;1.00;0.88;;;11.70;99.90;;;;;;5027115;28;20025;-86
2020/12/22 08:19:34;;;;;;;4.07;0.13;;;11.70;99.90;;;;;;5028431;28;20067;-83
2020/12/22 08:22:01;;;;;;;0.93;0.47;;;11.70;99.90;;;;;;5032653;28;20106;-88
2020/12/22 08:24:31;;;;;;;0.10;0.10;;;11.70;99.90;;;;;;5027177;28;20116;-82
2020/12/22 08:26:57;;;;;;;1.75;1.13;;;11.70;99.90;;;;;;5029725;28;20041;-83
2020/12/22 08:29:23;;;;;;;1.15;0.55;;;11.60;99.90;;;;;;5032065;28;20412;-82
2020/12/22 08:31:53;;;;;;;0.80;0.43;;;11.60;99.90;;;;;;4997860;28;20148;-80
2020/12/22 08:34:19;;;;;;;2.42;1.40;;;11.60;99.90;;;;;;5026999;28;20266;-86
2020/12/22 08:36:46;;;;;;;3.53;0.80;;;11.60;99.90;;;;;;5040559;28;20053;-84
2020/12/22 08:39:22;;;;;;;2.08;0.43;;;11.60;99.90;;;;;;5024176;28;20144;-80
2020/12/22 08:41:51;;;;;;;0.20;0.20;;;11.50;99.90;;;;;;5033955;28;20053;-89
2020/12/22 08:44:18;;;;;;;5.18;1.45;;;11.50;99.90;;;;;;5031317;28;20022;-84
2020/12/22 08:46:45;;;;;;;3.72;0.93;;;11.50;99.90;;;;;;5036507;28;20029;-81
2020/12/22 08:49:22;;;;;;;0.00;0.00;;;11.50;99.90;;;;;;5035152;28;20100;-89
2020/12/22 08:51:48;;;;;;;2.92;1.35;;;11.50;99.90;;;;;;5031974;28;20346;-82
2020/12/22 08:54:14;;;;;;;0.85;0.45;;;11.40;99.90;;;;;;5030925;28;20022;-88
2020/12/22 08:56:41;;;;;;;0.32;0.22;;;11.40;99.90;;;;;;5028270;28;20324;-84
2020/12/22 08:59:09;;;;;;;8.07;1.48;;;11.40;99.90;;;;;;5034520;28;20018;-88
2020/12/22 09:01:41;;;;;;;8.18;0.50;;;11.30;99.90;;;;;;5029179;28;20034;-88
2020/12/22 09:04:08;;;;;;;1.15;0.88;;;11.40;99.90;;;;;;5033265;28;20149;-82
2020/12/22 09:06:46;;;;;;;0.08;0.08;;;11.40;99.90;;;;;;5032547;28;20021;-83
2020/12/22 09:09:17;;;;;;;0.93;0.50;;;11.40;99.90;;;;;;5031921;28;20153;-84
2020/12/22 09:11:45;;;;;;;0.08;0.08;;;11.30;99.90;;;;;;5032834;28;20022;-84
2020/12/22 09:14:13;;;;;;;0.05;0.05;;;11.30;99.90;;;;;;5024608;28;20242;-85
2020/12/22 09:16:57;;;;;;;2.45;0.85;;;11.20;99.90;;;;;;5028458;28;20462;-83
2020/12/22 09:19:43;;;;;;;0.03;0.03;;;11.20;99.90;;;;;;5030359;28;20048;-82
2020/12/22 09:22:10;;;;;;;4.95;1.02;;;11.10;99.90;;;;;;5026667;28;20056;-88
2020/12/22 09:24:36;;;;;;;2.13;1.48;;;11.10;99.90;;;;;;5029896;28;20025;-82
2020/12/22 09:27:05;;;;;;;0.20;0.20;;;10.90;99.90;;;;;;5028274;28;20439;-80
2020/12/22 09:29:31;;;;;;;0.52;0.50;;;10.90;99.90;;;;;;5029803;28;20055;-80
2020/12/22 09:31:59;;;;;;;0.00;0.00;;;10.70;99.90;;;;;;5027646;28;20068;-78
2020/12/22 09:34:27;;;;;;;1.05;0.90;;;10.50;99.90;;;;;;5032588;28;20029;-79
2020/12/22 09:36:55;;;;;;;0.52;0.45;;;10.40;99.90;;;;;;5024698;28;20036;-79
2020/12/22 09:39:22;;;;;;;0.32;0.32;;;10.30;99.90;;;;;;5025760;28;20053;-80
2020/12/22 09:41:48;;;;;;;1.92;1.05;;;10.20;99.90;;;;;;5029792;28;20613;-81
2020/12/22 09:44:14;;;;;;;0.53;0.30;;;10.10;99.90;;;;;;5038738;28;20064;-80
2020/12/22 09:46:40;;;;;;;2.80;0.80;;;10.20;99.90;;;;;;5028968;28;20030;-82
2020/12/22 09:49:07;;;;;;;0.47;0.40;;;10.20;99.90;;;;;;5030502;28;20042;-85
2020/12/22 09:51:32;;;;;;;1.27;0.82;;;10.30;99.90;;;;;;5026199;28;20029;-83
2020/12/22 09:53:58;;;;;;;0.28;0.28;;;10.30;99.90;;;;;;5032978;28;20435;-81
2020/12/22 09:56:24;;;;;;;2.33;0.83;;;10.30;99.90;;;;;;5030770;28;20043;-81
2020/12/22 09:58:50;;;;;;;0.03;0.03;;;10.30;99.90;;;;;;5024311;28;20057;-83
2020/12/22 10:01:21;;;;;;;0.20;0.20;;;10.40;99.90;;;;;;5027976;28;20032;-84
2020/12/22 10:03:47;;;;;;;0.20;0.20;;;10.30;99.90;;;;;;5025515;28;20132;-82
2020/12/22 10:06:21;;;;;;;18.10;1.37;;;10.40;99.90;;;;;;5032948;28;20108;-81
2020/12/22 10:08:48;;;;;;;0.38;0.20;;;10.30;99.90;;;;;;5023793;28;20057;-86
2020/12/22 10:11:14;;;;;;;0.30;0.30;;;10.30;99.90;;;;;;5029897;28;20427;-82
2020/12/22 10:13:40;;;;;;;0.53;0.43;;;10.30;99.90;;;;;;5022365;28;20412;-80
2020/12/22 10:16:17;;;;;;;0.17;0.15;;;10.30;99.90;;;;;;5029398;28;20033;-82
2020/12/22 10:18:43;;;;;;;1.15;0.38;;;10.30;99.90;;;;;;5030548;28;20149;-79
2020/12/22 10:21:14;;;;;;;2.10;0.82;;;10.30;99.90;;;;;;5028753;28;20053;-80
2020/12/22 10:23:41;;;;;;;0.50;0.50;;;10.20;99.90;;;;;;5045476;28;20029;-81
2020/12/22 10:26:09;;;;;;;0.20;0.20;;;10.30;99.90;;;;;;5021579;28;20112;-81
2020/12/22 10:28:37;;;;;;;0.10;0.10;;;10.20;99.90;;;;;;5024054;28;20417;-82
2020/12/22 10:31:03;;;;;;;0.55;0.47;;;10.30;99.90;;;;;;5031012;28;20088;-80
2020/12/22 10:33:29;;;;;;;0.08;0.08;;;10.20;99.90;;;;;;5032309;28;20105;-81
2020/12/22 10:35:55;;;;;;;0.83;0.43;;;10.20;99.90;;;;;;5024846;28;20034;-80
2020/12/22 10:38:21;;;;;;;1.00;0.67;;;10.20;99.90;;;;;;5024620;28;20053;-83
2020/12/22 10:40:48;;;;;;;11.25;1.95;;;10.30;99.90;;;;;;5030113;28;20336;-85
2020/12/22 10:43:14;;;;;;;0.45;0.45;;;10.30;99.90;;;;;;5024780;28;20375;-83
2020/12/22 10:45:40;;;;;;;0.20;0.20;;;10.30;99.90;;;;;;5025567;28;20044;-87
2020/12/22 10:48:07;;;;;;;0.15;0.15;;;10.30;99.90;;;;;;5030576;28;20447;-84
2020/12/22 10:50:36;;;;;;;1.25;1.25;;;10.30;99.90;;;;;;5028516;28;20056;-85
2020/12/22 10:53:06;;;;;;;13.25;0.55;;;10.30;99.90;;;;;;5023992;28;20095;-85
2020/12/22 10:55:31;;;;;;;0.63;0.40;;;10.30;99.90;;;;;;5022881;28;20424;-84
2020/12/22 10:57:57;;;;;;;0.73;0.30;;;10.30;99.90;;;;;;5020688;28;20062;-84
2020/12/22 11:00:23;;;;;;;1.00;0.70;;;10.30;99.90;;;;;;5034567;28;20109;-86
2020/12/22 11:02:52;;;;;;;0.40;0.30;;;10.30;99.90;;;;;;5034635;28;20034;-84
2020/12/22 11:06:04;;;;;;;0.10;0.10;;;10.30;99.90;;;;;;5036133;28;20033;-84
2020/12/22 11:08:05;;;;;;;1.55;0.70;;;10.30;99.90;;;;;;5045205;28;20030;-85
2020/12/22 11:10:31;;;;;;;0.35;0.35;;;10.30;99.90;;;;;;5035785;28;20126;-84
2020/12/22 11:12:57;;;;;;;0.77;0.73;;;10.20;99.90;;;;;;5029655;28;20432;-86
2020/12/22 11:15:23;;;;;;;0.73;0.60;;;10.20;99.90;;;;;;5032432;28;20160;-85
2020/12/22 11:17:49;;;;;;;0.25;0.25;;;10.30;99.90;;;;;;5046838;28;20316;-86
2020/12/22 11:20:14;;;;;;;0.30;0.30;;;10.20;99.90;;;;;;5042199;28;20029;-88
2020/12/22 11:22:40;;;;;;;1.70;0.60;;;10.20;99.90;;;;;;5033518;28;20033;-84
2020/12/22 11:25:06;;;;;;;0.10;0.10;;;10.10;99.90;;;;;;5051262;28;20492;-83
2020/12/22 11:27:31;;;;;;;0.50;0.20;;;10.10;99.90;;;;;;5037570;28;20033;-81
2020/12/22 11:29:57;;;;;;;0.67;0.67;;;10.00;99.90;;;;;;5032667;28;20032;-82
2020/12/22 11:32:23;;;;;;;0.25;0.20;;;10.00;99.90;;;;;;5032142;28;20026;-82
2020/12/22 11:34:48;;;;;;;1.37;0.50;;;10.00;99.90;;;;;;5035344;28;20035;-83
2020/12/22 11:37:14;;;;;;;0.13;0.13;;;10.00;99.90;;;;;;5026735;28;20046;-83
2020/12/22 11:39:40;;;;;;;2.57;1.07;;;9.90;99.90;;;;;;5033378;28;20044;-81
2020/12/22 11:42:05;;;;;;;0.50;0.50;;;9.90;99.90;;;;;;5038771;28;20065;-82
2020/12/22 11:44:31;;;;;;;0.47;0.47;;;9.80;99.90;;;;;;5031347;28;20429;-83
2020/12/22 11:46:57;;;;;;;0.17;0.17;;;9.80;99.90;;;;;;5032681;28;20071;-83
2020/12/22 11:49:24;;;;;;;0.40;0.32;;;9.90;99.90;;;;;;5032894;28;20029;-81
2020/12/22 11:51:56;;;;;;;14.45;0.55;;;9.90;99.90;;;;;;5032207;28;20038;-82
2020/12/22 11:54:22;;;;;;;7.68;1.13;;;9.90;99.90;;;;;;5022655;28;20029;-84
2020/12/22 11:56:48;;;;;;;0.65;0.60;;;10.00;99.90;;;;;;5035541;28;20332;-83
2020/12/22 11:59:15;;;;;;;0.97;0.80;;;10.10;99.90;;;;;;5034659;28;20085;-83
2020/12/22 12:01:40;;;;;;;1.08;0.70;;;10.10;99.90;;;;;;5033421;28;20026;-82
2020/12/22 12:04:06;;;;;;;0.40;0.40;;;10.20;99.90;;;;;;5035581;28;20036;-82
2020/12/22 12:06:32;;;;;;;0.40;0.40;;;10.20;99.90;;;;;;5033505;28;20026;-83
2020/12/22 12:08:57;;;;;;;1.13;0.73;;;10.20;99.90;;;;;;5031939;28;20104;-84
2020/12/22 12:11:23;;;;;;;0.40;0.40;;;10.20;99.90;;;;;;5031889;28;20025;-80
2020/12/22 12:13:49;;;;;;;0.63;0.63;;;10.20;99.90;;;;;;5028567;28;20125;-85
2020/12/22 12:16:18;;;;;;;0.38;0.38;;;10.30;99.90;;;;;;5046145;28;20045;-81
2020/12/22 12:18:45;;;;;;;0.22;0.22;;;10.30;99.90;;;;;;5038633;28;20108;-88
2020/12/22 12:21:14;;;;;;;0.25;0.25;;;10.30;99.90;;;;;;5023076;28;20026;-87
2020/12/22 12:23:40;;;;;;;0.90;0.80;;;10.40;99.90;;;;;;5035640;28;20037;-87
2020/12/22 12:26:06;;;;;;;0.30;0.30;;;10.30;99.90;;;;;;5038912;28;20029;-90
2020/12/22 12:28:31;;;;;;;0.80;0.70;;;10.40;99.90;;;;;;5027278;28;20053;-90
2020/12/22 12:30:57;;;;;;;0.52;0.40;;;10.40;99.90;;;;;;5016331;28;20092;-93
2020/12/22 12:33:23;;;;;;;3.10;0.82;;;10.40;99.90;;;;;;5029505;28;20018;-93
2020/12/22 12:35:48;;;;;;;0.27;0.27;;;10.30;99.90;;;;;;5038364;28;20446;-87
2020/12/22 12:38:14;;;;;;;1.70;0.60;;;10.30;99.90;;;;;;5034919;28;20136;-86
2020/12/22 12:40:40;;;;;;;1.97;1.00;;;10.30;99.90;;;;;;5030261;28;20026;-86
2020/12/22 12:43:06;;;;;;;2.13;1.67;;;10.20;99.90;;;;;;5033437;28;20377;-95
2020/12/22 12:45:32;;;;;;;0.30;0.30;;;10.20;99.90;;;;;;5034238;28;20033;-88
2020/12/22 12:47:58;;;;;;;1.27;0.38;;;10.10;99.90;;;;;;5033133;28;20029;-91
2020/12/22 12:50:24;;;;;;;1.92;0.65;;;10.00;99.90;;;;;;5034262;28;20033;-89